sensor_id;sensor_type;location;lat;lon;timestamp;P1;durP1;ratioP1;P2;durP2;ratioP2
68718;SDS011;55696;52.138;5.444;2022-08-21T00:01:34;10.32;;;3.75;;
68718;SDS011;55696;52.138;5.444;2022-08-21T00:04:05;8.25;;;3.97;;
68718;SDS011;55696;52.138;5.444;2022-08-21T00:06:32;9.60;;;3.70;;
68718;SDS011;55696;52.138;5.444;2022-08-21T00:09:00;9.82;;;3.50;;
68718;SDS011;55696;52.138;5.444;2022-08-21T00:11:32;7.20;;;3.43;;
68718;SDS011;55696;52.138;5.444;2022-08-21T00:14:01;7.60;;;3.70;;
68718;SDS011;55696;52.138;5.444;2022-08-21T00:16:29;7.18;;;3.70;;
68718;SDS011;55696;52.138;5.444;2022-08-21T00:18:56;6.80;;;3.47;;
68718;SDS011;55696;52.138;5.444;2022-08-21T00:21:23;6.13;;;3.63;;
68718;SDS011;55696;52.138;5.444;2022-08-21T00:23:51;8.37;;;3.77;;
68718;SDS011;55696;52.138;5.444;2022-08-21T00:26:18;7.40;;;3.30;;
68718;SDS011;55696;52.138;5.444;2022-08-21T00:28:45;9.30;;;3.60;;
68718;SDS011;55696;52.138;5.444;2022-08-21T00:31:15;8.15;;;3.53;;
68718;SDS011;55696;52.138;5.444;2022-08-21T00:33:42;7.68;;;3.55;;
68718;SDS011;55696;52.138;5.444;2022-08-21T00:36:09;8.43;;;3.40;;
68718;SDS011;55696;52.138;5.444;2022-08-21T00:38:36;10.70;;;3.95;;
68718;SDS011;55696;52.138;5.444;2022-08-21T00:41:04;6.43;;;3.53;;
68718;SDS011;55696;52.138;5.444;2022-08-21T00:43:54;5.20;;;2.90;;
68718;SDS011;55696;52.138;5.444;2022-08-21T00:46:20;6.90;;;3.60;;
68718;SDS011;55696;52.138;5.444;2022-08-21T00:48:53;5.63;;;3.30;;
68718;SDS011;55696;52.138;5.444;2022-08-21T00:51:44;8.85;;;3.80;;
68718;SDS011;55696;52.138;5.444;2022-08-21T00:54:20;8.98;;;3.42;;
68718;SDS011;55696;52.138;5.444;2022-08-21T00:56:55;8.30;;;4.00;;
68718;SDS011;55696;52.138;5.444;2022-08-21T00:59:26;7.38;;;4.13;;
68718;SDS011;55696;52.138;5.444;2022-08-21T01:01:53;5.57;;;3.60;;
68718;SDS011;55696;52.138;5.444;2022-08-21T01:04:20;7.78;;;3.95;;
68718;SDS011;55696;52.138;5.444;2022-08-21T01:06:49;6.85;;;3.53;;
68718;SDS011;55696;52.138;5.444;2022-08-21T01:09:17;7.93;;;3.97;;
68718;SDS011;55696;52.138;5.444;2022-08-21T01:11:45;6.45;;;3.60;;
68718;SDS011;55696;52.138;5.444;2022-08-21T01:14:12;7.30;;;3.43;;
68718;SDS011;55696;52.138;5.444;2022-08-21T01:16:41;9.75;;;4.28;;
68718;SDS011;55696;52.138;5.444;2022-08-21T01:19:10;6.93;;;3.97;;
68718;SDS011;55696;52.138;5.444;2022-08-21T01:21:38;7.05;;;3.80;;
68718;SDS011;55696;52.138;5.444;2022-08-21T01:24:05;10.57;;;4.40;;
68718;SDS011;55696;52.138;5.444;2022-08-21T01:26:33;9.20;;;4.50;;
68718;SDS011;55696;52.138;5.444;2022-08-21T01:32:09;9.38;;;4.60;;
68718;SDS011;55696;52.138;5.444;2022-08-21T01:34:39;8.80;;;4.72;;
68718;SDS011;55696;52.138;5.444;2022-08-21T01:37:07;8.27;;;4.18;;
68718;SDS011;55696;52.138;5.444;2022-08-21T01:39:35;10.07;;;5.13;;
68718;SDS011;55696;52.138;5.444;2022-08-21T01:42:02;10.13;;;5.15;;
68718;SDS011;55696;52.138;5.444;2022-08-21T01:44:30;8.93;;;4.75;;
68718;SDS011;55696;52.138;5.444;2022-08-21T01:46:58;8.10;;;4.18;;
68718;SDS011;55696;52.138;5.444;2022-08-21T01:49:26;12.45;;;4.60;;
68718;SDS011;55696;52.138;5.444;2022-08-21T01:51:53;7.30;;;3.37;;
68718;SDS011;55696;52.138;5.444;2022-08-21T01:54:20;7.78;;;4.05;;
68718;SDS011;55696;52.138;5.444;2022-08-21T01:56:48;8.05;;;4.10;;
68718;SDS011;55696;52.138;5.444;2022-08-21T01:59:16;10.02;;;4.40;;
68718;SDS011;55696;52.138;5.444;2022-08-21T02:01:43;5.70;;;3.45;;
68718;SDS011;55696;52.138;5.444;2022-08-21T02:04:10;10.87;;;4.00;;
68718;SDS011;55696;52.138;5.444;2022-08-21T02:06:38;8.32;;;4.47;;
68718;SDS011;55696;52.138;5.444;2022-08-21T02:09:06;7.20;;;3.80;;
68718;SDS011;55696;52.138;5.444;2022-08-21T02:11:34;7.40;;;3.65;;
68718;SDS011;55696;52.138;5.444;2022-08-21T02:14:02;10.00;;;4.60;;
68718;SDS011;55696;52.138;5.444;2022-08-21T02:16:29;8.20;;;3.87;;
68718;SDS011;55696;52.138;5.444;2022-08-21T02:19:02;10.90;;;4.32;;
68718;SDS011;55696;52.138;5.444;2022-08-21T02:21:29;7.28;;;4.18;;
68718;SDS011;55696;52.138;5.444;2022-08-21T02:23:56;8.23;;;4.80;;
68718;SDS011;55696;52.138;5.444;2022-08-21T02:26:23;8.48;;;4.78;;
68718;SDS011;55696;52.138;5.444;2022-08-21T02:28:50;10.57;;;4.40;;
68718;SDS011;55696;52.138;5.444;2022-08-21T02:31:17;10.57;;;5.00;;
68718;SDS011;55696;52.138;5.444;2022-08-21T02:33:44;6.40;;;4.00;;
68718;SDS011;55696;52.138;5.444;2022-08-21T02:36:11;10.20;;;4.13;;
68718;SDS011;55696;52.138;5.444;2022-08-21T02:38:39;9.00;;;4.30;;
68718;SDS011;55696;52.138;5.444;2022-08-21T02:41:07;10.83;;;4.93;;
68718;SDS011;55696;52.138;5.444;2022-08-21T02:43:39;9.18;;;4.20;;
68718;SDS011;55696;52.138;5.444;2022-08-21T02:46:06;10.90;;;5.00;;
68718;SDS011;55696;52.138;5.444;2022-08-21T02:48:34;9.23;;;4.70;;
68718;SDS011;55696;52.138;5.444;2022-08-21T02:53:31;9.47;;;5.43;;
68718;SDS011;55696;52.138;5.444;2022-08-21T02:55:59;9.70;;;5.38;;
68718;SDS011;55696;52.138;5.444;2022-08-21T02:58:28;8.73;;;5.40;;
68718;SDS011;55696;52.138;5.444;2022-08-21T03:00:57;9.00;;;4.43;;
68718;SDS011;55696;52.138;5.444;2022-08-21T03:03:25;9.07;;;4.45;;
68718;SDS011;55696;52.138;5.444;2022-08-21T03:05:53;7.00;;;4.30;;
68718;SDS011;55696;52.138;5.444;2022-08-21T03:08:21;9.32;;;4.93;;
68718;SDS011;55696;52.138;5.444;2022-08-21T03:10:53;6.65;;;4.57;;
68718;SDS011;55696;52.138;5.444;2022-08-21T03:13:19;8.43;;;4.35;;
68718;SDS011;55696;52.138;5.444;2022-08-21T03:15:47;9.38;;;4.68;;
68718;SDS011;55696;52.138;5.444;2022-08-21T03:18:15;10.77;;;5.10;;
68718;SDS011;55696;52.138;5.444;2022-08-21T03:20:42;9.00;;;4.70;;
68718;SDS011;55696;52.138;5.444;2022-08-21T03:23:11;9.75;;;4.82;;
68718;SDS011;55696;52.138;5.444;2022-08-21T03:25:45;9.43;;;5.28;;
68718;SDS011;55696;52.138;5.444;2022-08-21T03:28:15;9.85;;;4.70;;
68718;SDS011;55696;52.138;5.444;2022-08-21T03:30:45;10.23;;;4.67;;
68718;SDS011;55696;52.138;5.444;2022-08-21T03:33:13;10.40;;;4.75;;
68718;SDS011;55696;52.138;5.444;2022-08-21T03:35:44;7.97;;;4.78;;
68718;SDS011;55696;52.138;5.444;2022-08-21T03:38:13;8.13;;;5.03;;
68718;SDS011;55696;52.138;5.444;2022-08-21T03:40:40;10.90;;;5.50;;
68718;SDS011;55696;52.138;5.444;2022-08-21T03:43:08;8.93;;;4.63;;
68718;SDS011;55696;52.138;5.444;2022-08-21T03:45:36;9.55;;;4.88;;
68718;SDS011;55696;52.138;5.444;2022-08-21T03:48:04;7.80;;;4.50;;
68718;SDS011;55696;52.138;5.444;2022-08-21T03:50:34;10.27;;;4.75;;
68718;SDS011;55696;52.138;5.444;2022-08-21T03:53:07;7.57;;;4.93;;
68718;SDS011;55696;52.138;5.444;2022-08-21T03:55:44;10.10;;;5.30;;
68718;SDS011;55696;52.138;5.444;2022-08-21T03:58:12;10.68;;;5.53;;
68718;SDS011;55696;52.138;5.444;2022-08-21T04:00:42;9.50;;;5.55;;
68718;SDS011;55696;52.138;5.444;2022-08-21T04:03:14;10.25;;;5.68;;
68718;SDS011;55696;52.138;5.444;2022-08-21T04:05:41;12.70;;;5.68;;
68718;SDS011;55696;52.138;5.444;2022-08-21T04:08:08;8.80;;;4.50;;
68718;SDS011;55696;52.138;5.444;2022-08-21T04:10:36;10.55;;;5.60;;
68718;SDS011;55696;52.138;5.444;2022-08-21T04:13:04;10.93;;;4.93;;
68718;SDS011;55696;52.138;5.444;2022-08-21T04:15:32;8.63;;;5.10;;
68718;SDS011;55696;52.138;5.444;2022-08-21T04:17:59;11.00;;;5.88;;
68718;SDS011;55696;52.138;5.444;2022-08-21T04:20:26;16.93;;;6.47;;
68718;SDS011;55696;52.138;5.444;2022-08-21T04:22:53;12.00;;;5.90;;
68718;SDS011;55696;52.138;5.444;2022-08-21T04:25:21;11.80;;;6.90;;
68718;SDS011;55696;52.138;5.444;2022-08-21T04:27:49;13.68;;;7.13;;
68718;SDS011;55696;52.138;5.444;2022-08-21T04:30:17;11.60;;;6.47;;
68718;SDS011;55696;52.138;5.444;2022-08-21T04:32:44;14.13;;;6.53;;
68718;SDS011;55696;52.138;5.444;2022-08-21T04:35:15;12.63;;;6.28;;
68718;SDS011;55696;52.138;5.444;2022-08-21T04:37:44;14.55;;;6.57;;
68718;SDS011;55696;52.138;5.444;2022-08-21T04:40:11;13.23;;;6.93;;
68718;SDS011;55696;52.138;5.444;2022-08-21T04:42:44;12.05;;;6.82;;
68718;SDS011;55696;52.138;5.444;2022-08-21T04:45:20;12.33;;;6.60;;
68718;SDS011;55696;52.138;5.444;2022-08-21T04:47:52;15.52;;;6.43;;
68718;SDS011;55696;52.138;5.444;2022-08-21T04:50:22;10.35;;;6.28;;
68718;SDS011;55696;52.138;5.444;2022-08-21T04:53:02;10.88;;;6.07;;
68718;SDS011;55696;52.138;5.444;2022-08-21T04:55:31;12.77;;;5.88;;
68718;SDS011;55696;52.138;5.444;2022-08-21T04:57:58;11.87;;;6.67;;
68718;SDS011;55696;52.138;5.444;2022-08-21T05:00:26;12.35;;;6.28;;
68718;SDS011;55696;52.138;5.444;2022-08-21T05:02:53;12.75;;;5.97;;
68718;SDS011;55696;52.138;5.444;2022-08-21T05:05:25;10.10;;;5.65;;
68718;SDS011;55696;52.138;5.444;2022-08-21T05:07:55;10.57;;;5.95;;
68718;SDS011;55696;52.138;5.444;2022-08-21T05:10:23;13.90;;;5.93;;
68718;SDS011;55696;52.138;5.444;2022-08-21T05:12:50;11.98;;;6.18;;
68718;SDS011;55696;52.138;5.444;2022-08-21T05:15:17;15.70;;;6.35;;
68718;SDS011;55696;52.138;5.444;2022-08-21T05:17:44;12.43;;;5.78;;
68718;SDS011;55696;52.138;5.444;2022-08-21T05:20:22;13.77;;;7.15;;
68718;SDS011;55696;52.138;5.444;2022-08-21T05:22:49;13.10;;;6.03;;
68718;SDS011;55696;52.138;5.444;2022-08-21T05:25:16;13.55;;;7.80;;
68718;SDS011;55696;52.138;5.444;2022-08-21T05:27:47;13.00;;;7.75;;
68718;SDS011;55696;52.138;5.444;2022-08-21T05:30:17;17.65;;;7.53;;
68718;SDS011;55696;52.138;5.444;2022-08-21T05:32:45;14.93;;;8.05;;
68718;SDS011;55696;52.138;5.444;2022-08-21T05:35:12;11.27;;;6.53;;
68718;SDS011;55696;52.138;5.444;2022-08-21T05:37:38;12.63;;;6.75;;
68718;SDS011;55696;52.138;5.444;2022-08-21T05:40:05;14.50;;;7.10;;
68718;SDS011;55696;52.138;5.444;2022-08-21T05:42:48;13.82;;;6.97;;
68718;SDS011;55696;52.138;5.444;2022-08-21T05:45:21;8.75;;;5.45;;
68718;SDS011;55696;52.138;5.444;2022-08-21T05:48:21;11.93;;;6.60;;
68718;SDS011;55696;52.138;5.444;2022-08-21T05:50:50;12.85;;;7.07;;
68718;SDS011;55696;52.138;5.444;2022-08-21T05:53:18;13.88;;;6.70;;
68718;SDS011;55696;52.138;5.444;2022-08-21T05:55:46;12.55;;;6.22;;
68718;SDS011;55696;52.138;5.444;2022-08-21T05:58:14;15.57;;;6.45;;
68718;SDS011;55696;52.138;5.444;2022-08-21T06:00:42;13.57;;;5.80;;
68718;SDS011;55696;52.138;5.444;2022-08-21T06:03:21;12.68;;;5.80;;
68718;SDS011;55696;52.138;5.444;2022-08-21T06:05:51;15.50;;;6.88;;
68718;SDS011;55696;52.138;5.444;2022-08-21T06:08:19;13.50;;;6.28;;
68718;SDS011;55696;52.138;5.444;2022-08-21T06:10:47;14.88;;;6.22;;
68718;SDS011;55696;52.138;5.444;2022-08-21T06:13:15;11.57;;;6.33;;
68718;SDS011;55696;52.138;5.444;2022-08-21T06:15:43;14.07;;;5.68;;
68718;SDS011;55696;52.138;5.444;2022-08-21T06:18:11;14.50;;;5.38;;
68718;SDS011;55696;52.138;5.444;2022-08-21T06:20:37;15.43;;;6.63;;
68718;SDS011;55696;52.138;5.444;2022-08-21T06:23:05;14.23;;;5.43;;
68718;SDS011;55696;52.138;5.444;2022-08-21T06:25:32;18.70;;;6.07;;
68718;SDS011;55696;52.138;5.444;2022-08-21T06:28:06;17.10;;;5.90;;
68718;SDS011;55696;52.138;5.444;2022-08-21T06:30:34;11.23;;;5.53;;
68718;SDS011;55696;52.138;5.444;2022-08-21T06:33:03;14.55;;;6.03;;
68718;SDS011;55696;52.138;5.444;2022-08-21T06:35:29;14.48;;;6.43;;
68718;SDS011;55696;52.138;5.444;2022-08-21T06:37:57;17.97;;;6.23;;
68718;SDS011;55696;52.138;5.444;2022-08-21T06:40:24;14.52;;;6.05;;
68718;SDS011;55696;52.138;5.444;2022-08-21T06:42:52;17.85;;;5.88;;
68718;SDS011;55696;52.138;5.444;2022-08-21T06:45:19;13.15;;;5.47;;
68718;SDS011;55696;52.138;5.444;2022-08-21T06:47:46;14.90;;;5.60;;
68718;SDS011;55696;52.138;5.444;2022-08-21T06:50:13;15.83;;;5.77;;
68718;SDS011;55696;52.138;5.444;2022-08-21T06:52:40;13.30;;;5.30;;
68718;SDS011;55696;52.138;5.444;2022-08-21T06:55:07;13.07;;;5.60;;
68718;SDS011;55696;52.138;5.444;2022-08-21T06:57:35;12.73;;;5.05;;
68718;SDS011;55696;52.138;5.444;2022-08-21T07:00:04;18.50;;;5.97;;
68718;SDS011;55696;52.138;5.444;2022-08-21T07:02:32;16.20;;;5.60;;
68718;SDS011;55696;52.138;5.444;2022-08-21T07:04:59;12.43;;;5.10;;
68718;SDS011;55696;52.138;5.444;2022-08-21T07:07:43;12.52;;;4.30;;
68718;SDS011;55696;52.138;5.444;2022-08-21T07:10:10;20.15;;;5.32;;
68718;SDS011;55696;52.138;5.444;2022-08-21T07:12:48;13.98;;;5.35;;
68718;SDS011;55696;52.138;5.444;2022-08-21T07:15:25;13.30;;;6.60;;
68718;SDS011;55696;52.138;5.444;2022-08-21T07:17:52;17.67;;;5.55;;
68718;SDS011;55696;52.138;5.444;2022-08-21T07:20:18;15.32;;;5.70;;
68718;SDS011;55696;52.138;5.444;2022-08-21T07:22:45;12.18;;;4.65;;
68718;SDS011;55696;52.138;5.444;2022-08-21T07:25:12;10.70;;;4.88;;
68718;SDS011;55696;52.138;5.444;2022-08-21T07:27:39;9.60;;;4.23;;
68718;SDS011;55696;52.138;5.444;2022-08-21T07:30:06;14.52;;;4.47;;
68718;SDS011;55696;52.138;5.444;2022-08-21T07:32:33;14.55;;;5.40;;
68718;SDS011;55696;52.138;5.444;2022-08-21T07:34:59;17.33;;;5.70;;
68718;SDS011;55696;52.138;5.444;2022-08-21T07:37:26;11.50;;;4.55;;
68718;SDS011;55696;52.138;5.444;2022-08-21T07:39:53;14.33;;;4.43;;
68718;SDS011;55696;52.138;5.444;2022-08-21T07:42:20;13.50;;;4.07;;
68718;SDS011;55696;52.138;5.444;2022-08-21T07:44:48;12.70;;;4.88;;
68718;SDS011;55696;52.138;5.444;2022-08-21T07:47:18;14.18;;;4.65;;
68718;SDS011;55696;52.138;5.444;2022-08-21T07:50:05;10.57;;;4.75;;
68718;SDS011;55696;52.138;5.444;2022-08-21T07:52:33;16.10;;;5.30;;
68718;SDS011;55696;52.138;5.444;2022-08-21T07:55:00;14.55;;;5.05;;
68718;SDS011;55696;52.138;5.444;2022-08-21T07:57:31;14.48;;;4.72;;
68718;SDS011;55696;52.138;5.444;2022-08-21T07:59:58;15.05;;;5.05;;
68718;SDS011;55696;52.138;5.444;2022-08-21T08:02:26;12.80;;;4.40;;
68718;SDS011;55696;52.138;5.444;2022-08-21T08:04:58;12.90;;;4.47;;
68718;SDS011;55696;52.138;5.444;2022-08-21T08:07:25;12.02;;;3.85;;
68718;SDS011;55696;52.138;5.444;2022-08-21T08:09:52;14.27;;;4.00;;
68718;SDS011;55696;52.138;5.444;2022-08-21T08:12:19;12.45;;;3.83;;
68718;SDS011;55696;52.138;5.444;2022-08-21T08:14:46;12.48;;;3.53;;
68718;SDS011;55696;52.138;5.444;2022-08-21T08:17:13;14.80;;;4.90;;
68718;SDS011;55696;52.138;5.444;2022-08-21T08:19:40;14.43;;;3.80;;
68718;SDS011;55696;52.138;5.444;2022-08-21T08:22:13;13.63;;;4.07;;
68718;SDS011;55696;52.138;5.444;2022-08-21T08:24:41;16.08;;;3.83;;
68718;SDS011;55696;52.138;5.444;2022-08-21T08:27:08;21.13;;;4.68;;
68718;SDS011;55696;52.138;5.444;2022-08-21T08:29:35;15.10;;;4.47;;
68718;SDS011;55696;52.138;5.444;2022-08-21T08:32:02;13.18;;;3.95;;
68718;SDS011;55696;52.138;5.444;2022-08-21T08:34:30;11.45;;;3.70;;
68718;SDS011;55696;52.138;5.444;2022-08-21T08:36:57;11.20;;;4.18;;
68718;SDS011;55696;52.138;5.444;2022-08-21T08:39:26;12.48;;;4.30;;
68718;SDS011;55696;52.138;5.444;2022-08-21T08:41:59;13.30;;;4.40;;
68718;SDS011;55696;52.138;5.444;2022-08-21T08:45:07;13.35;;;4.53;;
68718;SDS011;55696;52.138;5.444;2022-08-21T08:47:42;14.98;;;4.32;;
68718;SDS011;55696;52.138;5.444;2022-08-21T08:50:17;11.05;;;4.13;;
68718;SDS011;55696;52.138;5.444;2022-08-21T08:52:48;12.07;;;3.70;;
68718;SDS011;55696;52.138;5.444;2022-08-21T08:55:38;12.07;;;4.00;;
68718;SDS011;55696;52.138;5.444;2022-08-21T08:58:08;12.60;;;3.45;;
68718;SDS011;55696;52.138;5.444;2022-08-21T09:00:38;10.10;;;3.53;;
68718;SDS011;55696;52.138;5.444;2022-08-21T09:03:05;14.00;;;3.50;;
68718;SDS011;55696;52.138;5.444;2022-08-21T09:05:45;14.65;;;3.85;;
68718;SDS011;55696;52.138;5.444;2022-08-21T09:08:20;16.77;;;3.65;;
68718;SDS011;55696;52.138;5.444;2022-08-21T09:11:03;11.10;;;2.70;;
68718;SDS011;55696;52.138;5.444;2022-08-21T09:13:48;8.82;;;3.00;;
68718;SDS011;55696;52.138;5.444;2022-08-21T09:19:59;11.52;;;3.70;;
68718;SDS011;55696;52.138;5.444;2022-08-21T09:22:40;12.30;;;3.35;;
68718;SDS011;55696;52.138;5.444;2022-08-21T09:25:31;15.80;;;3.40;;
68718;SDS011;55696;52.138;5.444;2022-08-21T09:28:09;9.30;;;2.58;;
68718;SDS011;55696;52.138;5.444;2022-08-21T09:30:40;15.55;;;3.20;;
68718;SDS011;55696;52.138;5.444;2022-08-21T09:33:09;12.48;;;2.97;;
68718;SDS011;55696;52.138;5.444;2022-08-21T09:35:54;10.88;;;2.67;;
68718;SDS011;55696;52.138;5.444;2022-08-21T09:38:33;13.43;;;2.90;;
68718;SDS011;55696;52.138;5.444;2022-08-21T09:41:02;7.13;;;2.10;;
68718;SDS011;55696;52.138;5.444;2022-08-21T09:43:31;8.98;;;2.38;;
68718;SDS011;55696;52.138;5.444;2022-08-21T09:46:03;11.73;;;2.63;;
68718;SDS011;55696;52.138;5.444;2022-08-21T09:48:40;12.45;;;2.95;;
68718;SDS011;55696;52.138;5.444;2022-08-21T09:51:14;11.82;;;2.80;;
68718;SDS011;55696;52.138;5.444;2022-08-21T09:53:44;9.27;;;2.35;;
68718;SDS011;55696;52.138;5.444;2022-08-21T09:56:22;11.30;;;2.50;;
68718;SDS011;55696;52.138;5.444;2022-08-21T09:59:17;12.13;;;2.83;;
68718;SDS011;55696;52.138;5.444;2022-08-21T10:02:48;10.73;;;2.80;;
68718;SDS011;55696;52.138;5.444;2022-08-21T10:04:53;9.80;;;2.75;;
68718;SDS011;55696;52.138;5.444;2022-08-21T10:07:27;7.75;;;2.40;;
68718;SDS011;55696;52.138;5.444;2022-08-21T10:10:09;14.85;;;2.95;;
68718;SDS011;55696;52.138;5.444;2022-08-21T10:15:20;8.43;;;2.50;;
68718;SDS011;55696;52.138;5.444;2022-08-21T10:20:53;17.27;;;3.33;;
68718;SDS011;55696;52.138;5.444;2022-08-21T10:23:56;9.70;;;2.35;;
68718;SDS011;55696;52.138;5.444;2022-08-21T10:26:29;9.90;;;2.38;;
68718;SDS011;55696;52.138;5.444;2022-08-21T10:29:15;9.32;;;2.63;;
68718;SDS011;55696;52.138;5.444;2022-08-21T10:43:21;10.88;;;2.33;;
68718;SDS011;55696;52.138;5.444;2022-08-21T10:56:48;10.25;;;2.20;;
68718;SDS011;55696;52.138;5.444;2022-08-21T11:02:08;8.80;;;1.90;;
68718;SDS011;55696;52.138;5.444;2022-08-21T11:04:52;7.97;;;2.00;;
68718;SDS011;55696;52.138;5.444;2022-08-21T11:07:26;7.85;;;2.13;;
68718;SDS011;55696;52.138;5.444;2022-08-21T11:10:05;9.52;;;2.10;;
68718;SDS011;55696;52.138;5.444;2022-08-21T11:12:44;7.15;;;2.30;;
68718;SDS011;55696;52.138;5.444;2022-08-21T11:18:04;9.45;;;2.30;;
68718;SDS011;55696;52.138;5.444;2022-08-21T11:26:51;9.77;;;2.10;;
68718;SDS011;55696;52.138;5.444;2022-08-21T11:29:21;6.43;;;1.98;;
68718;SDS011;55696;52.138;5.444;2022-08-21T11:32:02;6.80;;;2.10;;
68718;SDS011;55696;52.138;5.444;2022-08-21T11:35:02;6.75;;;1.90;;
68718;SDS011;55696;52.138;5.444;2022-08-21T11:37:56;7.85;;;2.10;;
68718;SDS011;55696;52.138;5.444;2022-08-21T11:43:33;9.27;;;2.00;;
68718;SDS011;55696;52.138;5.444;2022-08-21T11:52:21;7.43;;;1.65;;
68718;SDS011;55696;52.138;5.444;2022-08-21T11:54:55;8.63;;;2.10;;
68718;SDS011;55696;52.138;5.444;2022-08-21T11:57:34;5.65;;;2.10;;
68718;SDS011;55696;52.138;5.444;2022-08-21T12:00:11;7.15;;;2.05;;
68718;SDS011;55696;52.138;5.444;2022-08-21T12:02:46;8.75;;;2.05;;
68718;SDS011;55696;52.138;5.444;2022-08-21T12:05:34;6.57;;;1.77;;
68718;SDS011;55696;52.138;5.444;2022-08-21T12:10:41;6.07;;;2.10;;
68718;SDS011;55696;52.138;5.444;2022-08-21T12:13:24;8.68;;;2.40;;
68718;SDS011;55696;52.138;5.444;2022-08-21T12:18:39;8.27;;;2.67;;
68718;SDS011;55696;52.138;5.444;2022-08-21T12:21:26;9.73;;;2.97;;
68718;SDS011;55696;52.138;5.444;2022-08-21T12:24:02;9.02;;;2.85;;
68718;SDS011;55696;52.138;5.444;2022-08-21T12:26:51;12.43;;;2.72;;
68718;SDS011;55696;52.138;5.444;2022-08-21T12:29:29;8.90;;;2.33;;
68718;SDS011;55696;52.138;5.444;2022-08-21T12:32:00;9.40;;;2.60;;
68718;SDS011;55696;52.138;5.444;2022-08-21T12:34:38;9.25;;;2.22;;
68718;SDS011;55696;52.138;5.444;2022-08-21T12:37:16;7.28;;;2.38;;
68718;SDS011;55696;52.138;5.444;2022-08-21T12:39:52;6.60;;;2.03;;
68718;SDS011;55696;52.138;5.444;2022-08-21T12:42:23;9.68;;;2.78;;
68718;SDS011;55696;52.138;5.444;2022-08-21T12:45:02;9.38;;;2.40;;
68718;SDS011;55696;52.138;5.444;2022-08-21T12:47:43;8.82;;;2.83;;
68718;SDS011;55696;52.138;5.444;2022-08-21T12:50:16;9.68;;;2.50;;
68718;SDS011;55696;52.138;5.444;2022-08-21T12:52:54;9.43;;;2.20;;
68718;SDS011;55696;52.138;5.444;2022-08-21T12:55:27;10.82;;;3.67;;
68718;SDS011;55696;52.138;5.444;2022-08-21T12:57:57;10.00;;;3.30;;
68718;SDS011;55696;52.138;5.444;2022-08-21T13:00:25;7.28;;;2.35;;
68718;SDS011;55696;52.138;5.444;2022-08-21T13:02:54;9.20;;;2.65;;
68718;SDS011;55696;52.138;5.444;2022-08-21T13:05:25;11.13;;;3.50;;
68718;SDS011;55696;52.138;5.444;2022-08-21T13:07:53;7.82;;;2.10;;
68718;SDS011;55696;52.138;5.444;2022-08-21T13:10:24;7.07;;;1.95;;
68718;SDS011;55696;52.138;5.444;2022-08-21T13:12:54;8.93;;;3.50;;
68718;SDS011;55696;52.138;5.444;2022-08-21T13:15:30;9.57;;;3.58;;
68718;SDS011;55696;52.138;5.444;2022-08-21T13:17:59;13.13;;;4.07;;
68718;SDS011;55696;52.138;5.444;2022-08-21T13:20:39;11.20;;;3.17;;
68718;SDS011;55696;52.138;5.444;2022-08-21T13:23:18;7.90;;;3.38;;
68718;SDS011;55696;52.138;5.444;2022-08-21T13:25:49;10.05;;;3.17;;
68718;SDS011;55696;52.138;5.444;2022-08-21T13:28:16;7.40;;;3.60;;
68718;SDS011;55696;52.138;5.444;2022-08-21T13:30:48;6.35;;;3.10;;
68718;SDS011;55696;52.138;5.444;2022-08-21T13:33:17;8.88;;;2.60;;
68718;SDS011;55696;52.138;5.444;2022-08-21T13:35:52;9.15;;;2.90;;
68718;SDS011;55696;52.138;5.444;2022-08-21T13:38:27;9.85;;;2.53;;
68718;SDS011;55696;52.138;5.444;2022-08-21T13:41:01;8.52;;;2.45;;
68718;SDS011;55696;52.138;5.444;2022-08-21T13:43:34;6.65;;;2.17;;
68718;SDS011;55696;52.138;5.444;2022-08-21T13:46:06;5.75;;;2.30;;
68718;SDS011;55696;52.138;5.444;2022-08-21T13:48:35;7.65;;;2.08;;
68718;SDS011;55696;52.138;5.444;2022-08-21T13:51:03;8.25;;;2.67;;
68718;SDS011;55696;52.138;5.444;2022-08-21T13:53:32;5.70;;;1.90;;
68718;SDS011;55696;52.138;5.444;2022-08-21T13:56:02;6.50;;;2.10;;
68718;SDS011;55696;52.138;5.444;2022-08-21T13:58:31;8.07;;;2.50;;
68718;SDS011;55696;52.138;5.444;2022-08-21T14:01:25;8.18;;;2.75;;
68718;SDS011;55696;52.138;5.444;2022-08-21T14:04:05;5.82;;;1.98;;
68718;SDS011;55696;52.138;5.444;2022-08-21T14:06:42;5.55;;;2.15;;
68718;SDS011;55696;52.138;5.444;2022-08-21T14:11:38;11.45;;;2.65;;
68718;SDS011;55696;52.138;5.444;2022-08-21T14:14:12;8.18;;;2.33;;
68718;SDS011;55696;52.138;5.444;2022-08-21T14:17:02;6.35;;;2.28;;
68718;SDS011;55696;52.138;5.444;2022-08-21T14:19:50;9.27;;;2.10;;
68718;SDS011;55696;52.138;5.444;2022-08-21T14:22:27;7.53;;;2.45;;
68718;SDS011;55696;52.138;5.444;2022-08-21T14:25:02;6.75;;;2.13;;
68718;SDS011;55696;52.138;5.444;2022-08-21T14:27:35;12.68;;;2.58;;
68718;SDS011;55696;52.138;5.444;2022-08-21T14:30:14;7.90;;;2.38;;
68718;SDS011;55696;52.138;5.444;2022-08-21T14:32:45;6.53;;;2.40;;
68718;SDS011;55696;52.138;5.444;2022-08-21T14:35:13;7.10;;;2.15;;
68718;SDS011;55696;52.138;5.444;2022-08-21T14:37:44;9.13;;;2.00;;
68718;SDS011;55696;52.138;5.444;2022-08-21T14:40:15;6.75;;;2.00;;
68718;SDS011;55696;52.138;5.444;2022-08-21T14:42:43;7.97;;;2.25;;
68718;SDS011;55696;52.138;5.444;2022-08-21T14:45:14;5.50;;;2.22;;
68718;SDS011;55696;52.138;5.444;2022-08-21T14:47:41;9.48;;;1.90;;
68718;SDS011;55696;52.138;5.444;2022-08-21T14:50:09;8.65;;;2.25;;
68718;SDS011;55696;52.138;5.444;2022-08-21T14:52:37;7.45;;;2.30;;
68718;SDS011;55696;52.138;5.444;2022-08-21T14:55:04;9.50;;;2.20;;
68718;SDS011;55696;52.138;5.444;2022-08-21T14:57:32;9.60;;;2.15;;
68718;SDS011;55696;52.138;5.444;2022-08-21T14:59:59;7.93;;;1.88;;
68718;SDS011;55696;52.138;5.444;2022-08-21T15:02:27;10.52;;;2.38;;
68718;SDS011;55696;52.138;5.444;2022-08-21T15:04:54;9.05;;;2.20;;
68718;SDS011;55696;52.138;5.444;2022-08-21T15:07:20;8.63;;;2.38;;
68718;SDS011;55696;52.138;5.444;2022-08-21T15:09:47;7.07;;;2.50;;
68718;SDS011;55696;52.138;5.444;2022-08-21T15:12:14;5.70;;;2.38;;
68718;SDS011;55696;52.138;5.444;2022-08-21T15:14:41;6.07;;;1.98;;
68718;SDS011;55696;52.138;5.444;2022-08-21T15:17:09;6.03;;;2.08;;
68718;SDS011;55696;52.138;5.444;2022-08-21T15:19:36;8.80;;;2.38;;
68718;SDS011;55696;52.138;5.444;2022-08-21T15:22:04;10.15;;;2.55;;
68718;SDS011;55696;52.138;5.444;2022-08-21T15:24:40;10.27;;;1.75;;
68718;SDS011;55696;52.138;5.444;2022-08-21T15:27:07;6.20;;;2.08;;
68718;SDS011;55696;52.138;5.444;2022-08-21T15:29:36;6.40;;;2.13;;
68718;SDS011;55696;52.138;5.444;2022-08-21T15:34:50;7.57;;;2.03;;
68718;SDS011;55696;52.138;5.444;2022-08-21T15:37:18;5.20;;;1.80;;
68718;SDS011;55696;52.138;5.444;2022-08-21T15:39:45;6.88;;;1.83;;
68718;SDS011;55696;52.138;5.444;2022-08-21T15:42:19;7.13;;;2.38;;
68718;SDS011;55696;52.138;5.444;2022-08-21T15:44:47;8.30;;;1.90;;
68718;SDS011;55696;52.138;5.444;2022-08-21T15:47:15;6.88;;;1.80;;
68718;SDS011;55696;52.138;5.444;2022-08-21T15:49:47;6.47;;;1.85;;
68718;SDS011;55696;52.138;5.444;2022-08-21T15:52:15;8.60;;;2.38;;
68718;SDS011;55696;52.138;5.444;2022-08-21T15:54:43;9.10;;;2.83;;
68718;SDS011;55696;52.138;5.444;2022-08-21T15:57:13;7.35;;;1.83;;
68718;SDS011;55696;52.138;5.444;2022-08-21T15:59:47;8.35;;;1.85;;
68718;SDS011;55696;52.138;5.444;2022-08-21T16:02:19;7.82;;;1.98;;
68718;SDS011;55696;52.138;5.444;2022-08-21T16:04:49;4.88;;;1.58;;
68718;SDS011;55696;52.138;5.444;2022-08-21T16:07:16;6.72;;;1.90;;
68718;SDS011;55696;52.138;5.444;2022-08-21T16:09:43;7.47;;;2.22;;
68718;SDS011;55696;52.138;5.444;2022-08-21T16:12:11;7.05;;;1.70;;
68718;SDS011;55696;52.138;5.444;2022-08-21T16:14:42;10.25;;;2.13;;